createdAt,value
2017-07-24T00:04:22.565Z,17.40
2017-07-24T00:09:25.760Z,17.40
2017-07-24T00:14:29.824Z,17.40
2017-07-24T00:19:33.025Z,17.40
2017-07-24T00:24:36.209Z,17.30
2017-07-24T00:29:39.383Z,17.30
2017-07-24T00:34:42.584Z,17.30
2017-07-24T00:39:45.780Z,17.30
2017-07-24T00:44:49.061Z,17.10
2017-07-24T00:49:52.254Z,17.30
2017-07-24T00:54:55.426Z,17.40
2017-07-24T00:59:59.386Z,17.30
2017-07-24T01:05:02.601Z,17.30
2017-07-24T01:10:05.793Z,17.30
2017-07-24T01:15:09.025Z,17.40
2017-07-24T01:20:12.211Z,17.40
2017-07-24T01:25:15.402Z,17.10
2017-07-24T01:30:18.610Z,17.00
2017-07-24T01:35:21.814Z,16.80
2017-07-24T01:40:25.741Z,17.20
2017-07-24T01:45:28.957Z,17.20
2017-07-24T01:50:32.114Z,17.40
2017-07-24T01:55:35.295Z,17.60
2017-07-24T02:00:38.468Z,17.60
2017-07-24T02:05:41.633Z,17.70
2017-07-24T02:10:44.809Z,17.60
2017-07-24T02:15:47.966Z,17.50
2017-07-24T02:20:51.901Z,17.30
2017-07-24T02:25:55.849Z,17.40
2017-07-24T02:30:59.034Z,17.40
2017-07-24T02:36:02.989Z,17.00
2017-07-24T02:41:06.206Z,17.00
2017-07-24T02:46:09.382Z,16.90
2017-07-24T02:51:12.579Z,16.80
2017-07-24T02:56:16.509Z,16.70
2017-07-24T03:01:19.712Z,16.70
2017-07-24T03:06:23.649Z,16.70
2017-07-24T03:11:26.839Z,16.70
2017-07-24T03:16:30.789Z,16.50
2017-07-24T03:21:33.974Z,16.50
2017-07-24T03:26:37.152Z,16.30
2017-07-24T03:31:40.319Z,16.10
2017-07-24T03:36:43.501Z,16.20
2017-07-24T03:41:46.677Z,16.20
2017-07-24T03:46:49.845Z,15.90
2017-07-24T03:51:53.046Z,15.70
2017-07-24T03:56:56.233Z,15.90
2017-07-24T04:01:59.408Z,15.90
2017-07-24T04:07:02.613Z,15.70
2017-07-24T04:12:06.577Z,15.40
2017-07-24T04:17:09.775Z,15.40
2017-07-24T04:22:12.973Z,15.50
2017-07-24T04:27:16.153Z,15.40
2017-07-24T04:32:19.326Z,15.30
2017-07-24T04:37:22.591Z,15.20
2017-07-24T04:42:25.801Z,15.10
2017-07-24T04:47:29.093Z,15.00
2017-07-24T04:52:32.274Z,15.00
2017-07-24T04:57:35.497Z,15.00
2017-07-24T05:02:38.729Z,14.90
2017-07-24T05:07:42.650Z,14.90
2017-07-24T05:12:46.613Z,14.90
2017-07-24T05:17:49.795Z,14.90
2017-07-24T05:22:52.986Z,14.90
2017-07-24T05:27:56.927Z,14.70
2017-07-24T05:33:00.110Z,14.60
2017-07-24T05:38:04.033Z,14.60
2017-07-24T05:43:07.989Z,14.60
2017-07-24T05:48:11.216Z,14.60
2017-07-24T05:53:14.376Z,14.60
2017-07-24T05:58:18.320Z,14.60
2017-07-24T06:03:21.526Z,14.60
2017-07-24T06:08:24.705Z,14.50
2017-07-24T06:13:28.666Z,14.30
2017-07-24T06:18:32.008Z,14.30
2017-07-24T06:23:35.182Z,14.10
2017-07-24T06:28:38.403Z,14.10
2017-07-24T06:33:41.565Z,14.00
2017-07-24T06:38:45.501Z,14.20
2017-07-24T06:43:48.689Z,14.20
2017-07-24T06:48:51.885Z,14.30
2017-07-24T06:53:55.066Z,14.30
2017-07-24T06:58:58.477Z,14.30
2017-07-24T07:04:01.788Z,14.20
2017-07-24T07:09:04.945Z,14.20
2017-07-24T07:14:08.142Z,14.30
2017-07-24T07:19:12.068Z,14.40
2017-07-24T07:24:16.022Z,14.30
2017-07-24T07:29:19.178Z,14.30
2017-07-24T07:34:22.380Z,14.20
2017-07-24T07:39:25.558Z,14.00
2017-07-24T07:44:28.750Z,14.00
2017-07-24T07:49:31.933Z,13.90
2017-07-24T07:54:35.110Z,13.90
2017-07-24T07:59:38.298Z,14.00
2017-07-24T08:04:41.760Z,14.00
2017-07-24T08:09:45.686Z,14.10
2017-07-24T08:14:48.865Z,14.10
2017-07-24T08:19:52.037Z,14.10
2017-07-24T08:24:55.211Z,14.20
2017-07-24T08:29:58.405Z,14.30
2017-07-24T08:35:02.385Z,14.70
2017-07-24T08:40:05.561Z,14.60
2017-07-24T08:45:08.762Z,15.00
2017-07-24T08:50:11.970Z,15.10
2017-07-24T08:55:15.158Z,15.10
2017-07-24T09:00:19.117Z,15.60
2017-07-24T09:05:22.336Z,15.60
2017-07-24T09:10:25.533Z,16.00
2017-07-24T09:15:28.721Z,16.80
2017-07-24T09:20:31.901Z,17.70
2017-07-24T09:25:35.853Z,17.30
2017-07-24T09:30:39.049Z,17.30
2017-07-24T09:35:42.315Z,16.50
2017-07-24T09:40:45.523Z,16.50
2017-07-24T09:45:48.730Z,16.70
2017-07-24T09:50:51.948Z,16.80
2017-07-24T09:55:55.117Z,17.20
2017-07-24T10:00:58.329Z,17.50
2017-07-24T10:06:01.524Z,17.60
2017-07-24T10:11:04.711Z,17.60
2017-07-24T10:16:07.891Z,17.60
2017-07-24T10:21:16.350Z,17.60
2017-07-24T10:26:21.596Z,18.10
2017-07-24T10:31:25.538Z,18.20
2017-07-24T10:36:28.748Z,18.10
2017-07-24T10:41:31.974Z,18.00
2017-07-24T10:46:35.172Z,18.10
2017-07-24T10:51:38.362Z,19.10
2017-07-24T10:56:41.539Z,19.30
2017-07-24T11:01:45.482Z,19.80
2017-07-24T11:06:48.705Z,19.80
2017-07-24T11:11:51.919Z,19.50
2017-07-24T11:16:55.099Z,19.40
2017-07-24T11:21:58.302Z,19.90
2017-07-24T11:27:02.237Z,20.30
2017-07-24T11:32:05.416Z,20.30
2017-07-24T11:37:09.447Z,19.60
2017-07-24T11:42:13.402Z,19.50
2017-07-24T11:47:16.610Z,19.50
2017-07-24T11:52:19.786Z,19.60
2017-07-24T11:57:23.731Z,19.80
2017-07-24T12:02:26.921Z,19.70
2017-07-24T12:07:30.877Z,19.70
2017-07-24T12:12:34.062Z,19.70
2017-07-24T12:17:38.016Z,19.40
2017-07-24T12:22:41.267Z,19.40
2017-07-24T12:27:44.502Z,19.00
2017-07-24T12:32:47.721Z,19.10
2017-07-24T12:37:50.905Z,19.80
2017-07-24T12:42:54.879Z,20.60
2017-07-24T12:47:58.086Z,20.60
2017-07-24T12:53:01.285Z,20.30
2017-07-24T12:58:04.481Z,19.80
2017-07-24T13:03:07.686Z,19.50
2017-07-24T13:08:10.865Z,19.20
2017-07-24T13:13:14.833Z,18.70
2017-07-24T13:18:18.021Z,18.70
2017-07-24T13:23:21.221Z,18.80
2017-07-24T13:28:24.390Z,19.60
2017-07-24T13:33:27.561Z,20.20
2017-07-24T13:38:30.745Z,20.00
2017-07-24T13:43:33.950Z,19.90
2017-07-24T13:48:37.148Z,20.10
2017-07-24T13:53:41.084Z,20.10
2017-07-24T13:58:44.266Z,20.10
2017-07-24T14:03:48.221Z,20.50
2017-07-24T14:08:51.409Z,20.50
2017-07-24T14:13:55.353Z,21.10
2017-07-24T14:18:58.559Z,21.10
2017-07-24T14:24:01.786Z,21.70
2017-07-24T14:29:04.980Z,21.30
2017-07-24T14:34:08.151Z,20.60
2017-07-24T14:39:12.121Z,19.90
2017-07-24T14:44:15.316Z,19.90
2017-07-24T14:49:18.547Z,20.00
2017-07-24T14:54:21.733Z,19.10
2017-07-24T14:59:25.051Z,18.40
2017-07-24T15:04:28.233Z,18.10
2017-07-24T15:09:31.405Z,17.90
2017-07-24T15:14:34.595Z,17.90
2017-07-24T15:19:38.104Z,18.20
2017-07-24T15:24:41.290Z,18.20
2017-07-24T15:29:45.096Z,18.20
2017-07-24T15:34:48.285Z,18.10
2017-07-24T15:39:52.233Z,17.90
2017-07-24T15:44:55.352Z,17.90
2017-07-24T15:49:58.574Z,17.60
2017-07-24T15:55:01.836Z,17.40
2017-07-24T16:00:06.017Z,17.20
2017-07-24T16:05:09.221Z,17.00
2017-07-24T16:10:12.411Z,16.50
2017-07-24T16:15:15.633Z,16.60
2017-07-24T16:20:18.889Z,16.60
2017-07-24T16:25:22.087Z,16.90
2017-07-24T16:30:26.037Z,16.90
2017-07-24T16:35:29.245Z,16.90
2017-07-24T16:40:32.444Z,17.20
2017-07-24T16:45:35.651Z,17.50
2017-07-24T16:50:38.829Z,17.80
2017-07-24T16:55:42.791Z,17.50
2017-07-24T17:00:45.950Z,17.50
2017-07-24T17:05:49.330Z,17.10
2017-07-24T17:10:52.637Z,17.30
2017-07-24T17:15:56.592Z,17.60
2017-07-24T17:20:59.836Z,17.20
2017-07-24T17:26:02.998Z,16.80
2017-07-24T17:31:06.155Z,16.70
2017-07-24T17:36:09.326Z,16.60
2017-07-24T17:41:12.476Z,16.50
2017-07-24T17:46:15.654Z,16.30
2017-07-24T17:51:19.602Z,16.20
2017-07-24T17:56:22.759Z,16.20
2017-07-24T18:01:25.956Z,16.10
2017-07-24T18:06:29.120Z,16.00
2017-07-24T18:11:32.314Z,15.90
2017-07-24T18:16:35.463Z,15.90
2017-07-24T18:21:38.612Z,15.80
2017-07-24T18:26:42.634Z,15.50
2017-07-24T18:31:46.605Z,15.50
2017-07-24T18:36:49.829Z,15.50
2017-07-24T18:41:53.107Z,15.40
2017-07-24T18:46:56.340Z,15.40
2017-07-24T18:51:59.534Z,15.40
2017-07-24T18:57:02.737Z,15.30
2017-07-24T19:02:05.947Z,15.30
2017-07-24T19:07:09.160Z,15.30
2017-07-24T19:12:12.378Z,15.20
2017-07-24T19:17:15.589Z,15.20
2017-07-24T19:22:18.908Z,15.20
2017-07-24T19:27:22.128Z,15.20
2017-07-24T19:32:25.306Z,15.10
2017-07-24T19:37:28.677Z,15.00
2017-07-24T19:42:32.644Z,14.90
2017-07-24T19:47:35.861Z,14.90
2017-07-24T19:52:39.062Z,14.80
2017-07-24T19:57:42.251Z,14.90
2017-07-24T20:02:45.441Z,14.80
2017-07-24T20:07:48.662Z,14.90
2017-07-24T20:12:51.890Z,14.80
2017-07-24T20:17:55.117Z,14.80
2017-07-24T20:22:58.326Z,14.80
2017-07-24T20:28:01.542Z,14.80
2017-07-24T20:33:05.504Z,14.70
2017-07-24T20:38:08.841Z,14.70
2017-07-24T20:43:12.102Z,14.70
2017-07-24T20:48:15.294Z,14.70
2017-07-24T20:53:19.262Z,14.80
2017-07-24T20:58:22.464Z,14.80
2017-07-24T21:03:25.712Z,14.80
2017-07-24T21:08:28.977Z,14.80
2017-07-24T21:13:32.175Z,14.90
2017-07-24T21:18:35.370Z,14.90
2017-07-24T21:23:39.324Z,14.90
2017-07-24T21:28:42.519Z,14.90
2017-07-24T21:33:45.713Z,14.80
2017-07-24T21:38:49.645Z,14.90
2017-07-24T21:43:52.826Z,14.90
2017-07-24T21:48:56.793Z,14.90
2017-07-24T21:53:59.977Z,15.00
2017-07-24T21:59:03.150Z,15.00
2017-07-24T22:04:06.352Z,15.00
2017-07-24T22:09:09.550Z,14.90
2017-07-24T22:14:12.729Z,15.00
2017-07-24T22:19:15.937Z,14.90
2017-07-24T22:24:19.184Z,14.90
2017-07-24T22:29:22.385Z,15.00
2017-07-24T22:34:25.578Z,15.00
2017-07-24T22:39:28.816Z,14.90
2017-07-24T22:44:32.773Z,14.70
2017-07-24T22:49:36.061Z,14.70
2017-07-24T22:54:40.094Z,14.90
2017-07-24T22:59:44.062Z,15.00
2017-07-24T23:04:47.254Z,15.00
2017-07-24T23:09:50.464Z,15.00
2017-07-24T23:14:53.671Z,15.00
2017-07-24T23:19:56.923Z,15.10
2017-07-24T23:25:00.109Z,15.10
2017-07-24T23:30:03.347Z,15.00
2017-07-24T23:35:07.313Z,14.90
2017-07-24T23:40:10.559Z,14.90
2017-07-24T23:45:13.736Z,14.90
2017-07-24T23:50:16.872Z,14.90
2017-07-24T23:55:20.051Z,14.90
